createdAt,value
2023-01-28T00:04:59.829Z,14.50
2023-01-28T00:10:21.469Z,16.20
2023-01-28T00:15:43.152Z,15.20
2023-01-28T00:21:11.146Z,15.90
2023-01-28T00:26:32.888Z,15.20
2023-01-28T00:31:56.590Z,15.20
2023-01-28T00:37:18.814Z,14.90
2023-01-28T00:42:40.661Z,14.50
2023-01-28T00:48:02.688Z,15.30
2023-01-28T00:53:24.547Z,11.00
2023-01-28T00:58:47.409Z,14.70
2023-01-28T01:04:10.981Z,13.80
2023-01-28T01:09:33.099Z,13.70
2023-01-28T01:14:54.860Z,11.00
2023-01-28T01:20:19.662Z,12.90
2023-01-28T01:25:41.702Z,13.60
2023-01-28T01:31:07.204Z,10.90
2023-01-28T01:36:29.696Z,13.20
2023-01-28T01:41:51.269Z,13.10
2023-01-28T01:47:14.346Z,11.30
2023-01-28T01:52:36.602Z,11.60
2023-01-28T01:58:02.662Z,12.10
2023-01-28T02:03:31.926Z,12.40
2023-01-28T02:08:55.760Z,10.90
2023-01-28T02:14:30.570Z,13.30
2023-01-28T02:20:04.965Z,12.70
2023-01-28T02:25:54.800Z,12.10
2023-01-28T02:31:49.066Z,12.00
2023-01-28T02:37:52.658Z,12.70
2023-01-28T02:43:15.152Z,11.30
2023-01-28T02:48:37.111Z,10.20
2023-01-28T02:54:05.128Z,11.30
2023-01-28T02:59:35.610Z,9.00
2023-01-28T03:05:16.144Z,7.80
2023-01-28T03:10:38.256Z,8.50
2023-01-28T03:16:19.023Z,8.20
2023-01-28T03:22:01.927Z,8.40
2023-01-28T03:28:07.046Z,8.70
2023-01-28T03:33:48.868Z,9.00
2023-01-28T03:39:11.327Z,8.30
2023-01-28T03:44:52.976Z,7.80
2023-01-28T03:50:17.091Z,7.70
2023-01-28T03:55:59.231Z,8.60
2023-01-28T04:01:22.374Z,7.50
2023-01-28T04:06:44.776Z,8.40
2023-01-28T04:12:28.002Z,7.80
2023-01-28T04:17:50.149Z,8.60
2023-01-28T04:23:21.988Z,8.30
2023-01-28T04:28:44.235Z,7.70
2023-01-28T04:34:06.257Z,8.00
2023-01-28T04:39:54.323Z,8.90
2023-01-28T04:45:32.654Z,6.90
2023-01-28T04:51:14.913Z,9.00
2023-01-28T04:56:45.659Z,8.80
2023-01-28T05:02:09.363Z,9.50
2023-01-28T05:07:31.508Z,8.10
2023-01-28T05:12:53.221Z,7.60
2023-01-28T05:18:15.808Z,6.60
2023-01-28T05:23:44.481Z,7.80
2023-01-28T05:29:06.234Z,7.00
2023-01-28T05:34:28.293Z,9.60
2023-01-28T05:39:50.764Z,8.90
2023-01-28T05:45:13.278Z,8.80
2023-01-28T05:50:55.099Z,9.40
2023-01-28T05:56:26.875Z,7.80
2023-01-28T06:01:49.692Z,7.90
2023-01-28T06:07:13.487Z,8.10
2023-01-28T06:12:38.266Z,7.50
2023-01-28T06:18:19.974Z,7.10
2023-01-28T06:23:43.619Z,8.00
2023-01-28T06:29:05.747Z,7.60
2023-01-28T06:34:27.721Z,7.60
2023-01-28T06:39:49.590Z,9.50
2023-01-28T06:45:11.638Z,8.50
2023-01-28T06:50:33.216Z,10.50
2023-01-28T06:55:57.623Z,9.60
2023-01-28T07:01:19.108Z,13.10
2023-01-28T07:06:41.270Z,7.70
2023-01-28T07:12:05.507Z,8.50
2023-01-28T07:17:27.667Z,8.30
2023-01-28T07:22:49.565Z,8.70
2023-01-28T07:28:12.298Z,8.50
2023-01-28T07:33:34.190Z,7.60
2023-01-28T07:38:55.915Z,7.60
2023-01-28T07:44:17.379Z,8.80
2023-01-28T07:49:42.332Z,8.90
2023-01-28T07:55:05.481Z,9.40
2023-01-28T08:00:30.640Z,10.50
2023-01-28T08:05:53.457Z,9.90
2023-01-28T08:11:15.559Z,10.80
2023-01-28T08:16:37.602Z,7.60
2023-01-28T08:21:59.632Z,11.90
2023-01-28T08:27:21.463Z,14.90
2023-01-28T08:32:43.381Z,11.00
2023-01-28T08:38:06.711Z,7.70
2023-01-28T08:43:28.538Z,6.80
2023-01-28T08:48:51.216Z,5.40
2023-01-28T08:54:13.302Z,7.90
2023-01-28T08:59:35.331Z,7.80
2023-01-28T09:05:00.503Z,10.60
2023-01-28T09:10:24.052Z,10.30
2023-01-28T09:15:46.272Z,18.40
2023-01-28T09:21:13.521Z,19.10
2023-01-28T09:26:47.023Z,14.50
2023-01-28T09:32:09.563Z,13.50
2023-01-28T09:37:31.918Z,16.30
2023-01-28T09:43:31.916Z,9.60
2023-01-28T09:48:55.218Z,9.80
2023-01-28T09:54:28.064Z,9.20
2023-01-28T09:59:50.363Z,12.90
2023-01-28T10:05:18.329Z,11.80
2023-01-28T10:11:12.501Z,12.60
2023-01-28T10:16:40.453Z,10.10
2023-01-28T10:22:06.182Z,9.30
2023-01-28T10:27:30.434Z,8.10
2023-01-28T10:32:54.374Z,7.40
2023-01-28T10:38:20.012Z,7.50
2023-01-28T10:43:42.742Z,8.10
2023-01-28T10:49:17.619Z,9.30
2023-01-28T10:54:39.448Z,8.60
2023-01-28T11:00:24.260Z,7.30
2023-01-28T11:05:53.004Z,8.40
2023-01-28T11:11:15.846Z,9.50
2023-01-28T11:16:39.681Z,11.30
2023-01-28T11:22:01.507Z,16.70
2023-01-28T11:27:28.901Z,14.80
2023-01-28T11:33:00.297Z,25.20
2023-01-28T11:38:24.768Z,14.40
2023-01-28T11:43:46.620Z,10.00
2023-01-28T11:49:30.191Z,15.20
2023-01-28T11:55:19.639Z,14.90
2023-01-28T12:00:50.389Z,15.50
2023-01-28T12:06:43.216Z,11.80
2023-01-28T12:12:15.891Z,18.40
2023-01-28T12:17:37.517Z,22.00
2023-01-28T12:23:05.058Z,18.30
2023-01-28T12:28:32.342Z,15.70
2023-01-28T12:34:21.825Z,12.50
2023-01-28T12:39:43.890Z,12.90
2023-01-28T12:45:18.574Z,13.50
2023-01-28T12:50:48.942Z,17.30
2023-01-28T12:56:24.204Z,17.80
2023-01-28T13:02:12.181Z,18.50
2023-01-28T13:07:54.856Z,14.10
2023-01-28T13:13:22.167Z,18.10
2023-01-28T13:18:46.557Z,11.80
2023-01-28T13:24:14.291Z,24.50
2023-01-28T13:29:36.501Z,72.80
2023-01-28T13:35:01.991Z,24.30
2023-01-28T13:40:24.699Z,14.40
2023-01-28T13:45:56.518Z,17.50
2023-01-28T13:51:34.462Z,18.90
2023-01-28T13:57:35.084Z,16.40
2023-01-28T14:03:28.873Z,13.80
2023-01-28T14:08:53.190Z,16.00
2023-01-28T14:14:41.556Z,15.10
2023-01-28T14:20:03.991Z,20.10
2023-01-28T14:25:34.400Z,19.60
2023-01-28T14:31:19.016Z,17.40
2023-01-28T14:36:43.325Z,20.60
2023-01-28T14:42:05.377Z,27.20
2023-01-28T14:47:36.981Z,19.60
2023-01-28T14:53:08.038Z,36.00
2023-01-28T14:58:33.097Z,26.40
2023-01-28T15:03:54.572Z,26.00
2023-01-28T15:09:16.404Z,32.60
2023-01-28T15:14:40.360Z,20.30
2023-01-28T15:20:04.481Z,16.00
2023-01-28T15:25:28.567Z,22.30
2023-01-28T15:30:50.553Z,29.70
2023-01-28T15:36:12.614Z,25.90
2023-01-28T15:41:39.661Z,23.40
2023-01-28T15:47:06.801Z,19.20
2023-01-28T15:52:42.377Z,20.70
2023-01-28T15:58:11.848Z,21.40
2023-01-28T16:03:34.505Z,22.70
2023-01-28T16:09:00.934Z,17.80
2023-01-28T16:14:31.730Z,21.70
2023-01-28T16:20:05.373Z,20.30
2023-01-28T16:25:32.463Z,24.10
2023-01-28T16:30:54.332Z,23.80
2023-01-28T16:36:19.327Z,18.70
2023-01-28T16:41:43.892Z,20.30
2023-01-28T16:47:06.579Z,27.40
2023-01-28T16:52:28.557Z,26.90
2023-01-28T16:57:53.176Z,23.90
2023-01-28T17:03:15.325Z,23.90
2023-01-28T17:08:37.301Z,28.70
2023-01-28T17:14:00.240Z,27.80
2023-01-28T17:19:22.046Z,28.00
2023-01-28T17:24:43.782Z,26.80
2023-01-28T17:30:06.860Z,24.70
2023-01-28T17:35:28.864Z,23.10
2023-01-28T17:40:50.494Z,21.60
2023-01-28T17:46:13.988Z,24.10
2023-01-28T17:51:36.205Z,20.70
2023-01-28T17:56:58.708Z,20.00
2023-01-28T18:02:20.395Z,21.00
2023-01-28T18:07:44.085Z,19.80
2023-01-28T18:13:05.894Z,35.20
2023-01-28T18:18:27.660Z,30.00
2023-01-28T18:23:52.100Z,22.80
2023-01-28T18:29:17.252Z,15.70
2023-01-28T18:34:39.141Z,25.20
2023-01-28T18:40:01.009Z,18.40
2023-01-28T18:45:23.220Z,13.70
2023-01-28T18:50:55.594Z,11.60
2023-01-28T18:56:17.283Z,10.70
2023-01-28T19:01:40.668Z,10.60
2023-01-28T19:07:03.670Z,9.70
2023-01-28T19:12:25.752Z,16.60
2023-01-28T19:17:47.265Z,16.30
2023-01-28T19:23:09.593Z,14.30
2023-01-28T19:28:33.321Z,11.60
2023-01-28T19:33:58.254Z,11.00
2023-01-28T19:39:20.463Z,14.60
2023-01-28T19:44:42.579Z,11.30
2023-01-28T19:50:04.541Z,15.50
2023-01-28T19:55:26.667Z,15.60
2023-01-28T20:00:51.425Z,13.50
2023-01-28T20:06:15.844Z,11.70
2023-01-28T20:11:37.748Z,11.30
2023-01-28T20:16:59.508Z,11.40
2023-01-28T20:22:21.198Z,13.90
2023-01-28T20:27:43.466Z,11.50
2023-01-28T20:33:05.425Z,11.70
2023-01-28T20:38:27.521Z,10.50
2023-01-28T20:43:51.238Z,21.60
2023-01-28T20:49:14.949Z,15.00
2023-01-28T20:54:39.435Z,18.10
2023-01-28T21:00:01.450Z,13.40
2023-01-28T21:05:23.126Z,12.80
2023-01-28T21:10:45.153Z,11.40
2023-01-28T21:16:07.580Z,11.80
2023-01-28T21:21:33.621Z,22.70
2023-01-28T21:26:55.691Z,12.90
2023-01-28T21:32:18.022Z,17.60
2023-01-28T21:37:40.267Z,11.30
2023-01-28T21:43:04.563Z,12.10
2023-01-28T21:48:26.906Z,11.50
2023-01-28T21:53:48.494Z,9.80
2023-01-28T21:59:29.728Z,10.80
2023-01-28T22:04:54.490Z,7.00
2023-01-28T22:10:17.204Z,6.40
2023-01-28T22:15:40.926Z,7.80
2023-01-28T22:21:05.167Z,6.60
2023-01-28T22:26:26.887Z,11.00
2023-01-28T22:31:53.323Z,8.50
2023-01-28T22:37:15.664Z,7.10
2023-01-28T22:42:37.542Z,8.00
2023-01-28T22:47:59.790Z,9.40
2023-01-28T22:53:22.805Z,7.80
2023-01-28T22:58:45.216Z,8.00
2023-01-28T23:04:10.984Z,8.00
2023-01-28T23:09:34.500Z,7.40
2023-01-28T23:15:15.248Z,7.60
2023-01-28T23:20:58.284Z,7.40
2023-01-28T23:26:20.161Z,8.10
2023-01-28T23:31:43.597Z,7.70
2023-01-28T23:37:07.406Z,7.60
2023-01-28T23:42:29.562Z,8.70
2023-01-28T23:47:52.519Z,6.80
2023-01-28T23:53:14.440Z,7.80
2023-01-28T23:58:43.157Z,7.80
